sensor_id;sensor_type;location;lat;lon;timestamp;pressure;altitude;pressure_sealevel;temperature;humidity
41312;BME280;27061;41.648;24.568;2023-01-27T00:00:35;84743.22;;;2.64;95.85
41312;BME280;27061;41.648;24.568;2023-01-27T00:03:02;84708.47;;;2.36;94.54
41312;BME280;27061;41.648;24.568;2023-01-27T00:05:29;84735.75;;;2.54;92.97
41312;BME280;27061;41.648;24.568;2023-01-27T00:07:56;84751.34;;;2.78;89.06
41312;BME280;27061;41.648;24.568;2023-01-27T00:10:25;84721.41;;;2.45;90.14
41312;BME280;27061;41.648;24.568;2023-01-27T00:12:52;84758.91;;;2.73;88.24
41312;BME280;27061;41.648;24.568;2023-01-27T00:15:37;84737.75;;;2.57;88.06
41312;BME280;27061;41.648;24.568;2023-01-27T00:18:05;84747.28;;;2.67;89.12
41312;BME280;27061;41.648;24.568;2023-01-27T00:20:32;84679.19;;;2.12;90.03
41312;BME280;27061;41.648;24.568;2023-01-27T00:23:20;84708.47;;;2.42;90.97
41312;BME280;27061;41.648;24.568;2023-01-27T00:26:09;84748.00;;;2.63;91.37
41312;BME280;27061;41.648;24.568;2023-01-27T00:28:39;84754.16;;;2.64;91.74
41312;BME280;27061;41.648;24.568;2023-01-27T00:31:08;84763.72;;;2.58;91.95
41312;BME280;27061;41.648;24.568;2023-01-27T00:33:55;84766.44;;;2.63;92.38
41312;BME280;27061;41.648;24.568;2023-01-27T00:36:28;84756.84;;;2.66;90.40
41312;BME280;27061;41.648;24.568;2023-01-27T00:38:56;84703.72;;;2.28;89.60
41312;BME280;27061;41.648;24.568;2023-01-27T00:41:23;84716.69;;;2.28;90.01
41312;BME280;27061;41.648;24.568;2023-01-27T00:43:53;84696.22;;;2.29;90.29
41312;BME280;27061;41.648;24.568;2023-01-27T00:46:22;84677.16;;;2.04;89.74
41312;BME280;27061;41.648;24.568;2023-01-27T00:48:50;84756.16;;;2.69;90.00
41312;BME280;27061;41.648;24.568;2023-01-27T00:51:17;84742.50;;;2.67;88.95
41312;BME280;27061;41.648;24.568;2023-01-27T00:53:45;84735.75;;;2.50;88.71
41312;BME280;27061;41.648;24.568;2023-01-27T00:56:12;84718.03;;;2.39;89.28
41312;BME280;27061;41.648;24.568;2023-01-27T00:58:40;84707.09;;;2.35;89.30
41312;BME280;27061;41.648;24.568;2023-01-27T01:01:10;84754.13;;;2.72;89.31
41312;BME280;27061;41.648;24.568;2023-01-27T01:03:38;84754.81;;;2.72;89.42
41312;BME280;27061;41.648;24.568;2023-01-27T01:06:08;84738.41;;;2.70;85.45
41312;BME280;27061;41.648;24.568;2023-01-27T01:08:36;84711.22;;;2.32;85.13
41312;BME280;27061;41.648;24.568;2023-01-27T01:11:05;84737.13;;;2.47;86.15
41312;BME280;27061;41.648;24.568;2023-01-27T01:13:33;84766.44;;;2.58;86.07
41312;BME280;27061;41.648;24.568;2023-01-27T01:16:12;84645.22;;;1.66;87.91
41312;BME280;27061;41.648;24.568;2023-01-27T01:18:40;84763.72;;;2.58;88.05
41312;BME280;27061;41.648;24.568;2023-01-27T01:21:09;84723.53;;;2.31;88.36
41312;BME280;27061;41.648;24.568;2023-01-27T01:23:37;84692.16;;;2.17;88.37
41312;BME280;27061;41.648;24.568;2023-01-27T01:26:05;84694.19;;;2.19;88.72
41312;BME280;27061;41.648;24.568;2023-01-27T01:28:32;84746.59;;;2.66;88.77
41312;BME280;27061;41.648;24.568;2023-01-27T01:31:07;84738.44;;;2.60;88.48
41312;BME280;27061;41.648;24.568;2023-01-27T01:33:35;84675.13;;;2.09;89.12
41312;BME280;27061;41.648;24.568;2023-01-27T01:36:11;84696.22;;;2.25;88.30
41312;BME280;27061;41.648;24.568;2023-01-27T01:38:38;84702.31;;;2.37;87.33
41312;BME280;27061;41.648;24.568;2023-01-27T01:41:18;84648.47;;;2.15;86.30
41312;BME280;27061;41.648;24.568;2023-01-27T01:43:46;84662.78;;;2.26;87.56
41312;BME280;27061;41.648;24.568;2023-01-27T01:46:13;84679.78;;;2.37;87.44
41312;BME280;27061;41.648;24.568;2023-01-27T01:48:47;84711.78;;;2.65;87.56
41312;BME280;27061;41.648;24.568;2023-01-27T01:51:39;84709.72;;;2.65;87.47
41312;BME280;27061;41.648;24.568;2023-01-27T01:54:16;84670.25;;;2.34;87.56
41312;BME280;27061;41.648;24.568;2023-01-27T01:57:38;84700.88;;;2.65;87.34
41312;BME280;27061;41.648;24.568;2023-01-27T02:00:00;84689.22;;;2.66;86.93
41312;BME280;27061;41.648;24.568;2023-01-27T02:02:28;84619.81;;;2.16;85.54
41312;BME280;27061;41.648;24.568;2023-01-27T02:05:18;84683.06;;;2.68;86.16
41312;BME280;27061;41.648;24.568;2023-01-27T02:07:58;84682.38;;;2.71;85.90
41312;BME280;27061;41.648;24.568;2023-01-27T02:10:27;84673.59;;;2.52;85.99
41312;BME280;27061;41.648;24.568;2023-01-27T02:12:54;84682.38;;;2.71;86.79
41312;BME280;27061;41.648;24.568;2023-01-27T02:15:22;84634.75;;;2.32;85.80
41312;BME280;27061;41.648;24.568;2023-01-27T02:17:51;84554.47;;;1.74;86.37
41312;BME280;27061;41.648;24.568;2023-01-27T02:20:38;84642.88;;;2.46;86.91
41312;BME280;27061;41.648;24.568;2023-01-27T02:26:07;84659.16;;;2.70;84.87
41312;BME280;27061;41.648;24.568;2023-01-27T02:28:36;84668.03;;;2.69;86.23
41312;BME280;27061;41.648;24.568;2023-01-27T02:31:03;84638.13;;;2.42;86.55
41312;BME280;27061;41.648;24.568;2023-01-27T02:33:32;84663.28;;;2.65;86.37
41312;BME280;27061;41.648;24.568;2023-01-27T02:36:11;84638.84;;;2.35;86.28
41312;BME280;27061;41.648;24.568;2023-01-27T02:38:43;84666.00;;;2.67;87.31
41312;BME280;27061;41.648;24.568;2023-01-27T02:41:25;84639.47;;;2.47;87.54
41312;BME280;27061;41.648;24.568;2023-01-27T02:43:53;84643.50;;;2.58;87.48
41312;BME280;27061;41.648;24.568;2023-01-27T02:46:20;84648.34;;;2.50;86.85
41312;BME280;27061;41.648;24.568;2023-01-27T02:48:48;84671.47;;;2.67;87.57
41312;BME280;27061;41.648;24.568;2023-01-27T02:51:15;84621.06;;;2.38;87.05
41312;BME280;27061;41.648;24.568;2023-01-27T02:53:43;84674.19;;;2.75;86.13
41312;BME280;27061;41.648;24.568;2023-01-27T02:56:10;84664.56;;;2.76;85.65
41312;BME280;27061;41.648;24.568;2023-01-27T02:58:38;84666.63;;;2.76;84.97
41312;BME280;27061;41.648;24.568;2023-01-27T03:01:09;84661.84;;;2.76;83.92
41312;BME280;27061;41.648;24.568;2023-01-27T03:03:36;84630.53;;;2.57;84.90
41312;BME280;27061;41.648;24.568;2023-01-27T03:06:17;84577.53;;;2.09;84.98
41312;BME280;27061;41.648;24.568;2023-01-27T03:08:44;84648.31;;;2.54;85.54
41312;BME280;27061;41.648;24.568;2023-01-27T03:11:13;84657.13;;;2.69;85.65
41312;BME280;27061;41.648;24.568;2023-01-27T03:14:02;84631.91;;;2.56;84.33
41312;BME280;27061;41.648;24.568;2023-01-27T03:16:29;84655.06;;;2.71;85.58
41312;BME280;27061;41.648;24.568;2023-01-27T03:19:15;84660.56;;;2.63;86.30
41312;BME280;27061;41.648;24.568;2023-01-27T03:21:42;84649.59;;;2.69;86.73
41312;BME280;27061;41.648;24.568;2023-01-27T03:24:11;84635.31;;;2.54;86.82
41312;BME280;27061;41.648;24.568;2023-01-27T03:26:38;84657.78;;;2.73;86.67
41312;BME280;27061;41.648;24.568;2023-01-27T03:29:07;84629.91;;;2.44;85.92
41312;BME280;27061;41.648;24.568;2023-01-27T03:31:52;84631.94;;;2.52;86.05
41312;BME280;27061;41.648;24.568;2023-01-27T03:34:20;84671.44;;;2.75;84.68
41312;BME280;27061;41.648;24.568;2023-01-27T03:36:50;84630.69;;;2.31;84.96
41312;BME280;27061;41.648;24.568;2023-01-27T03:39:35;84663.25;;;2.73;84.99
41312;BME280;27061;41.648;24.568;2023-01-27T03:42:21;84615.66;;;2.32;85.24
41312;BME280;27061;41.648;24.568;2023-01-27T03:45:07;84661.22;;;2.68;85.59
41312;BME280;27061;41.648;24.568;2023-01-27T03:47:53;84630.59;;;2.45;85.87
41312;BME280;27061;41.648;24.568;2023-01-27T03:50:20;84674.88;;;2.68;86.38
41312;BME280;27061;41.648;24.568;2023-01-27T03:52:56;84619.75;;;2.29;86.52
41312;BME280;27061;41.648;24.568;2023-01-27T03:55:30;84661.88;;;2.72;86.85
41312;BME280;27061;41.648;24.568;2023-01-27T03:57:58;84595.19;;;2.29;84.00
41312;BME280;27061;41.648;24.568;2023-01-27T04:01:04;84650.38;;;2.53;85.68
41312;BME280;27061;41.648;24.568;2023-01-27T04:03:33;84644.19;;;2.63;85.78
41312;BME280;27061;41.648;24.568;2023-01-27T04:06:24;84637.34;;;2.62;86.51
41312;BME280;27061;41.648;24.568;2023-01-27T04:09:11;84614.25;;;2.37;86.87
41312;BME280;27061;41.648;24.568;2023-01-27T04:11:38;84592.50;;;2.20;87.32
41312;BME280;27061;41.648;24.568;2023-01-27T04:16:53;84640.03;;;2.68;87.32
41312;BME280;27061;41.648;24.568;2023-01-27T04:19:20;84642.09;;;2.70;88.00
41312;BME280;27061;41.648;24.568;2023-01-27T04:21:47;84627.75;;;2.65;87.91
41312;BME280;27061;41.648;24.568;2023-01-27T04:24:15;84631.09;;;2.76;88.69
41312;BME280;27061;41.648;24.568;2023-01-27T04:26:43;84583.50;;;2.42;88.96
41312;BME280;27061;41.648;24.568;2023-01-27T04:29:12;84622.28;;;2.67;89.41
41312;BME280;27061;41.648;24.568;2023-01-27T04:31:39;84592.41;;;2.35;89.54
41312;BME280;27061;41.648;24.568;2023-01-27T04:34:07;84596.44;;;2.48;90.38
41312;BME280;27061;41.648;24.568;2023-01-27T04:36:34;84577.38;;;2.34;90.63
41312;BME280;27061;41.648;24.568;2023-01-27T04:39:01;84585.50;;;2.46;90.26
41312;BME280;27061;41.648;24.568;2023-01-27T04:41:28;84618.91;;;2.61;90.54
41312;BME280;27061;41.648;24.568;2023-01-27T04:43:55;84582.25;;;2.17;91.17
41312;BME280;27061;41.648;24.568;2023-01-27T04:46:22;84646.19;;;2.71;91.24
41312;BME280;27061;41.648;24.568;2023-01-27T04:48:49;84633.25;;;2.61;90.90
41312;BME280;27061;41.648;24.568;2023-01-27T04:51:16;84635.94;;;2.65;91.31
41312;BME280;27061;41.648;24.568;2023-01-27T04:53:43;84604.69;;;2.42;89.02
41312;BME280;27061;41.648;24.568;2023-01-27T04:56:28;84593.75;;;2.38;89.65
41312;BME280;27061;41.648;24.568;2023-01-27T04:59:03;84656.47;;;2.64;90.11
41312;BME280;27061;41.648;24.568;2023-01-27T05:01:30;84668.09;;;2.63;90.65
41312;BME280;27061;41.648;24.568;2023-01-27T05:03:57;84663.25;;;2.71;89.62
41312;BME280;27061;41.648;24.568;2023-01-27T05:06:25;84645.56;;;2.56;90.05
41312;BME280;27061;41.648;24.568;2023-01-27T05:08:52;84661.09;;;2.88;90.26
41312;BME280;27061;41.648;24.568;2023-01-27T05:11:20;84656.34;;;2.84;92.01
41312;BME280;27061;41.648;24.568;2023-01-27T05:13:47;84642.78;;;2.66;92.96
41312;BME280;27061;41.648;24.568;2023-01-27T05:16:19;84657.78;;;2.75;93.68
41312;BME280;27061;41.648;24.568;2023-01-27T05:18:48;84663.19;;;2.79;93.56
41312;BME280;27061;41.648;24.568;2023-01-27T05:21:19;84596.56;;;2.26;92.05
41312;BME280;27061;41.648;24.568;2023-01-27T05:23:47;84640.75;;;2.61;92.72
41312;BME280;27061;41.648;24.568;2023-01-27T05:26:17;84658.38;;;2.88;93.08
41312;BME280;27061;41.648;24.568;2023-01-27T05:28:46;84651.59;;;2.81;93.14
41312;BME280;27061;41.648;24.568;2023-01-27T05:31:15;84642.06;;;2.72;92.38
41312;BME280;27061;41.648;24.568;2023-01-27T05:33:47;84664.53;;;2.86;91.79
41312;BME280;27061;41.648;24.568;2023-01-27T05:36:17;84669.28;;;2.90;91.56
41312;BME280;27061;41.648;24.568;2023-01-27T05:38:44;84640.03;;;2.72;90.25
41312;BME280;27061;41.648;24.568;2023-01-27T05:41:12;84658.41;;;2.82;89.92
41312;BME280;27061;41.648;24.568;2023-01-27T05:43:41;84626.41;;;2.62;91.18
41312;BME280;27061;41.648;24.568;2023-01-27T05:46:14;84656.97;;;2.93;91.20
41312;BME280;27061;41.648;24.568;2023-01-27T05:48:45;84663.13;;;2.93;90.58
41312;BME280;27061;41.648;24.568;2023-01-27T05:51:13;84623.69;;;2.64;90.27
41312;BME280;27061;41.648;24.568;2023-01-27T05:53:42;84625.00;;;2.73;89.30
41312;BME280;27061;41.648;24.568;2023-01-27T05:56:12;84650.88;;;2.84;88.37
41312;BME280;27061;41.648;24.568;2023-01-27T05:58:39;84629.84;;;2.56;89.66
41312;BME280;27061;41.648;24.568;2023-01-27T06:01:26;84656.31;;;2.92;90.21
41312;BME280;27061;41.648;24.568;2023-01-27T06:03:54;84658.34;;;2.92;90.17
41312;BME280;27061;41.648;24.568;2023-01-27T06:06:23;84602.59;;;2.44;90.60
41312;BME280;27061;41.648;24.568;2023-01-27T06:08:50;84618.78;;;2.79;88.67
41312;BME280;27061;41.648;24.568;2023-01-27T06:11:19;84582.78;;;2.46;88.39
41312;BME280;27061;41.648;24.568;2023-01-27T06:13:47;84645.41;;;2.84;90.61
41312;BME280;27061;41.648;24.568;2023-01-27T06:16:16;84625.00;;;2.71;90.93
41312;BME280;27061;41.648;24.568;2023-01-27T06:18:44;84621.56;;;2.73;91.77
41312;BME280;27061;41.648;24.568;2023-01-27T06:21:12;84599.09;;;2.58;92.42
41312;BME280;27061;41.648;24.568;2023-01-27T06:23:40;84666.44;;;3.10;91.42
41312;BME280;27061;41.648;24.568;2023-01-27T06:26:13;84669.22;;;3.02;91.47
41312;BME280;27061;41.648;24.568;2023-01-27T06:28:42;84593.06;;;2.41;91.36
41312;BME280;27061;41.648;24.568;2023-01-27T06:31:10;84676.75;;;3.04;90.12
41312;BME280;27061;41.648;24.568;2023-01-27T06:33:38;84627.72;;;2.69;90.20
41312;BME280;27061;41.648;24.568;2023-01-27T06:36:12;84641.31;;;2.83;90.16
41312;BME280;27061;41.648;24.568;2023-01-27T06:38:40;84636.63;;;2.70;90.13
41312;BME280;27061;41.648;24.568;2023-01-27T06:41:07;84678.09;;;3.07;90.90
41312;BME280;27061;41.648;24.568;2023-01-27T06:43:34;84669.91;;;2.99;91.37
41312;BME280;27061;41.648;24.568;2023-01-27T06:46:01;84675.31;;;3.15;91.11
41312;BME280;27061;41.648;24.568;2023-01-27T06:48:32;84663.72;;;3.08;89.62
41312;BME280;27061;41.648;24.568;2023-01-27T06:50:59;84663.00;;;3.12;90.62
41312;BME280;27061;41.648;24.568;2023-01-27T06:53:27;84584.13;;;2.49;91.26
41312;BME280;27061;41.648;24.568;2023-01-27T06:55:56;84660.28;;;3.08;92.13
41312;BME280;27061;41.648;24.568;2023-01-27T06:58:24;84570.53;;;2.43;91.82
41312;BME280;27061;41.648;24.568;2023-01-27T07:00:52;84611.31;;;2.75;90.39
41312;BME280;27061;41.648;24.568;2023-01-27T07:03:20;84662.84;;;3.34;89.16
41312;BME280;27061;41.648;24.568;2023-01-27T07:05:47;84603.78;;;2.78;87.66
41312;BME280;27061;41.648;24.568;2023-01-27T07:08:14;84620.69;;;3.03;87.73
41312;BME280;27061;41.648;24.568;2023-01-27T07:10:41;84665.66;;;3.24;89.42
41312;BME280;27061;41.648;24.568;2023-01-27T07:13:10;84686.09;;;3.33;90.61
41312;BME280;27061;41.648;24.568;2023-01-27T07:15:38;84646.63;;;3.10;91.76
41312;BME280;27061;41.648;24.568;2023-01-27T07:18:05;84652.66;;;3.24;91.49
41312;BME280;27061;41.648;24.568;2023-01-27T07:20:32;84658.84;;;3.23;91.50
41312;BME280;27061;41.648;24.568;2023-01-27T07:23:01;84665.00;;;3.19;94.27
41312;BME280;27061;41.648;24.568;2023-01-27T07:25:29;84657.50;;;3.18;95.14
41312;BME280;27061;41.648;24.568;2023-01-27T07:27:57;84654.75;;;3.20;96.92
41312;BME280;27061;41.648;24.568;2023-01-27T07:30:26;84612.56;;;2.94;95.04
41312;BME280;27061;41.648;24.568;2023-01-27T07:32:53;84685.22;;;3.61;94.17
41312;BME280;27061;41.648;24.568;2023-01-27T07:35:21;84621.25;;;3.19;93.64
41312;BME280;27061;41.648;24.568;2023-01-27T07:37:49;84620.53;;;3.27;93.03
41312;BME280;27061;41.648;24.568;2023-01-27T07:40:16;84593.22;;;3.19;92.30
41312;BME280;27061;41.648;24.568;2023-01-27T07:42:44;84604.06;;;3.29;93.31
41312;BME280;27061;41.648;24.568;2023-01-27T07:45:11;84652.84;;;3.84;93.49
41312;BME280;27061;41.648;24.568;2023-01-27T07:47:38;84624.31;;;3.64;93.43
41312;BME280;27061;41.648;24.568;2023-01-27T07:50:06;84654.81;;;3.93;93.75
41312;BME280;27061;41.648;24.568;2023-01-27T07:52:33;84620.09;;;3.74;93.91
41312;BME280;27061;41.648;24.568;2023-01-27T07:55:00;84658.09;;;4.10;92.35
41312;BME280;27061;41.648;24.568;2023-01-27T07:57:28;84662.13;;;4.15;92.12
41312;BME280;27061;41.648;24.568;2023-01-27T07:59:55;84649.88;;;4.12;92.37
41312;BME280;27061;41.648;24.568;2023-01-27T08:02:23;84585.25;;;3.70;92.54
41312;BME280;27061;41.648;24.568;2023-01-27T08:04:50;84667.44;;;4.33;91.45
41312;BME280;27061;41.648;24.568;2023-01-27T08:07:19;84633.47;;;4.08;90.20
41312;BME280;27061;41.648;24.568;2023-01-27T08:09:47;84625.22;;;4.10;90.23
41312;BME280;27061;41.648;24.568;2023-01-27T08:12:14;84677.50;;;4.53;91.37
41312;BME280;27061;41.648;24.568;2023-01-27T08:14:41;84631.22;;;4.25;91.05
41312;BME280;27061;41.648;24.568;2023-01-27T08:17:08;84602.72;;;4.01;90.23
41312;BME280;27061;41.648;24.568;2023-01-27T08:19:35;84608.69;;;4.20;89.62
41312;BME280;27061;41.648;24.568;2023-01-27T08:22:02;84608.69;;;4.18;90.37
41312;BME280;27061;41.648;24.568;2023-01-27T08:24:29;84597.84;;;4.08;90.63
41312;BME280;27061;41.648;24.568;2023-01-27T08:26:56;84647.28;;;4.57;90.55
41312;BME280;27061;41.648;24.568;2023-01-27T08:29:23;84649.22;;;4.67;90.49
41312;BME280;27061;41.648;24.568;2023-01-27T08:31:50;84634.91;;;4.64;90.21
41312;BME280;27061;41.648;24.568;2023-01-27T08:34:18;84598.84;;;4.41;90.54
41312;BME280;27061;41.648;24.568;2023-01-27T08:36:45;84662.72;;;4.87;90.60
41312;BME280;27061;41.648;24.568;2023-01-27T08:39:12;84590.69;;;4.35;89.98
41312;BME280;27061;41.648;24.568;2023-01-27T08:41:39;84665.38;;;4.93;90.01
41312;BME280;27061;41.648;24.568;2023-01-27T08:44:06;84687.28;;;4.95;89.51
41312;BME280;27061;41.648;24.568;2023-01-27T08:46:33;84658.38;;;5.04;88.30
41312;BME280;27061;41.648;24.568;2023-01-27T08:49:00;84650.31;;;4.92;88.50
41312;BME280;27061;41.648;24.568;2023-01-27T08:51:28;84578.28;;;4.45;88.59
41312;BME280;27061;41.648;24.568;2023-01-27T08:53:56;84626.59;;;4.70;89.15
41312;BME280;27061;41.648;24.568;2023-01-27T08:56:23;84561.94;;;4.34;89.16
41312;BME280;27061;41.648;24.568;2023-01-27T09:07:24;84592.56;;;5.02;85.74
41312;BME280;27061;41.648;24.568;2023-01-27T09:09:51;84569.50;;;4.85;85.53
41312;BME280;27061;41.648;24.568;2023-01-27T09:12:38;84637.53;;;5.24;85.80
41312;BME280;27061;41.648;24.568;2023-01-27T09:15:05;84643.53;;;5.36;86.29
41312;BME280;27061;41.648;24.568;2023-01-27T09:17:32;84636.16;;;5.23;85.86
41312;BME280;27061;41.648;24.568;2023-01-27T09:19:59;84633.34;;;5.29;85.74
41312;BME280;27061;41.648;24.568;2023-01-27T09:22:30;84565.84;;;4.52;85.46
41312;BME280;27061;41.648;24.568;2023-01-27T09:24:57;84653.81;;;5.36;85.50
41312;BME280;27061;41.648;24.568;2023-01-27T09:27:26;84632.09;;;5.20;85.57
41312;BME280;27061;41.648;24.568;2023-01-27T09:30:05;84630.66;;;5.25;85.48
41312;BME280;27061;41.648;24.568;2023-01-27T09:32:33;84627.81;;;5.31;85.38
41312;BME280;27061;41.648;24.568;2023-01-27T09:35:00;84644.13;;;5.43;85.68
41312;BME280;27061;41.648;24.568;2023-01-27T09:37:27;84659.03;;;5.54;85.50
41312;BME280;27061;41.648;24.568;2023-01-27T09:39:58;84623.75;;;5.28;86.33
41312;BME280;27061;41.648;24.568;2023-01-27T09:50:43;84645.00;;;5.74;87.41
41312;BME280;27061;41.648;24.568;2023-01-27T10:01:16;84598.59;;;5.58;86.95
41312;BME280;27061;41.648;24.568;2023-01-27T10:07:30;84637.84;;;5.94;86.88
41312;BME280;27061;41.648;24.568;2023-01-27T10:09:49;84635.03;;;6.00;86.17
41312;BME280;27061;41.648;24.568;2023-01-27T10:12:39;84632.97;;;6.00;86.18
41312;BME280;27061;41.648;24.568;2023-01-27T10:26:49;84629.31;;;6.12;86.29
41312;BME280;27061;41.648;24.568;2023-01-27T10:29:24;84605.31;;;6.10;84.96
41312;BME280;27061;41.648;24.568;2023-01-27T10:34:31;84609.44;;;6.09;85.03
41312;BME280;27061;41.648;24.568;2023-01-27T10:43:08;84599.19;;;6.06;83.17
41312;BME280;27061;41.648;24.568;2023-01-27T10:45:43;84601.91;;;6.08;83.01
41312;BME280;27061;41.648;24.568;2023-01-27T10:48:21;84531.38;;;5.55;83.09
41312;BME280;27061;41.648;24.568;2023-01-27T10:50:58;84597.09;;;6.08;83.07
41312;BME280;27061;41.648;24.568;2023-01-27T10:55:59;84593.63;;;6.10;83.34
41312;BME280;27061;41.648;24.568;2023-01-27T11:01:11;84577.22;;;6.06;82.52
41312;BME280;27061;41.648;24.568;2023-01-27T11:03:56;84549.38;;;5.89;82.58
41312;BME280;27061;41.648;24.568;2023-01-27T11:06:33;84520.91;;;5.66;81.95
41312;BME280;27061;41.648;24.568;2023-01-27T11:09:06;84569.84;;;5.96;82.00
41312;BME280;27061;41.648;24.568;2023-01-27T11:11:36;84548.72;;;5.84;82.24
41312;BME280;27061;41.648;24.568;2023-01-27T11:16:47;84570.91;;;6.13;83.07
41312;BME280;27061;41.648;24.568;2023-01-27T11:19:43;84513.13;;;5.78;83.90
41312;BME280;27061;41.648;24.568;2023-01-27T11:22:22;84521.16;;;5.93;84.45
41312;BME280;27061;41.648;24.568;2023-01-27T11:25:04;84569.28;;;6.27;84.62
41312;BME280;27061;41.648;24.568;2023-01-27T11:30:41;84517.00;;;5.94;83.97
41312;BME280;27061;41.648;24.568;2023-01-27T11:33:22;84500.81;;;5.77;84.51
41312;BME280;27061;41.648;24.568;2023-01-27T11:35:52;84545.38;;;6.19;84.57
41312;BME280;27061;41.648;24.568;2023-01-27T11:38:21;84534.41;;;6.19;84.64
41312;BME280;27061;41.648;24.568;2023-01-27T11:40:50;84552.03;;;6.30;84.57
41312;BME280;27061;41.648;24.568;2023-01-27T11:43:22;84516.78;;;6.06;84.48
41312;BME280;27061;41.648;24.568;2023-01-27T11:45:55;84541.56;;;6.39;84.26
41312;BME280;27061;41.648;24.568;2023-01-27T11:48:37;84548.31;;;6.46;84.08
41312;BME280;27061;41.648;24.568;2023-01-27T11:51:14;84549.72;;;6.45;84.11
41312;BME280;27061;41.648;24.568;2023-01-27T11:53:43;84488.13;;;5.95;83.88
41312;BME280;27061;41.648;24.568;2023-01-27T11:56:16;84557.84;;;6.49;83.76
41312;BME280;27061;41.648;24.568;2023-01-27T11:59:17;84537.44;;;6.40;83.23
41312;BME280;27061;41.648;24.568;2023-01-27T12:01:50;84454.09;;;5.79;82.48
41312;BME280;27061;41.648;24.568;2023-01-27T12:10:28;84521.97;;;6.22;81.84
41312;BME280;27061;41.648;24.568;2023-01-27T12:12:57;84477.31;;;5.84;82.07
41312;BME280;27061;41.648;24.568;2023-01-27T12:15:29;84540.88;;;6.38;82.59
41312;BME280;27061;41.648;24.568;2023-01-27T12:18:03;84492.19;;;6.00;82.38
41312;BME280;27061;41.648;24.568;2023-01-27T12:20:58;84528.66;;;6.31;81.58
41312;BME280;27061;41.648;24.568;2023-01-27T12:23:28;84486.75;;;5.96;82.49
41312;BME280;27061;41.648;24.568;2023-01-27T12:25:59;84542.97;;;6.38;82.61
41312;BME280;27061;41.648;24.568;2023-01-27T12:28:33;84536.78;;;6.37;82.60
41312;BME280;27061;41.648;24.568;2023-01-27T12:31:07;84540.97;;;6.34;82.68
41312;BME280;27061;41.648;24.568;2023-01-27T12:33:37;84543.72;;;6.34;82.37
41312;BME280;27061;41.648;24.568;2023-01-27T12:36:17;84534.25;;;6.25;82.02
41312;BME280;27061;41.648;24.568;2023-01-27T12:38:57;84540.34;;;6.32;82.24
41312;BME280;27061;41.648;24.568;2023-01-27T12:41:28;84490.13;;;5.98;82.16
41312;BME280;27061;41.648;24.568;2023-01-27T12:43:58;84513.84;;;6.16;81.70
41312;BME280;27061;41.648;24.568;2023-01-27T12:46:33;84444.06;;;5.64;81.76
41312;BME280;27061;41.648;24.568;2023-01-27T12:49:08;84507.81;;;6.07;82.15
41312;BME280;27061;41.648;24.568;2023-01-27T12:51:41;84528.19;;;6.20;81.96
41312;BME280;27061;41.648;24.568;2023-01-27T12:54:27;84485.53;;;5.86;82.35
41312;BME280;27061;41.648;24.568;2023-01-27T12:57:03;84530.25;;;6.20;82.59
41312;BME280;27061;41.648;24.568;2023-01-27T12:59:32;84534.31;;;6.23;82.31
41312;BME280;27061;41.648;24.568;2023-01-27T13:02:14;84430.03;;;5.43;82.18
41312;BME280;27061;41.648;24.568;2023-01-27T13:04:47;84470.59;;;5.77;81.10
41312;BME280;27061;41.648;24.568;2023-01-27T13:07:22;84520.78;;;6.13;81.14
41312;BME280;27061;41.648;24.568;2023-01-27T13:10:02;84507.22;;;6.03;81.39
41312;BME280;27061;41.648;24.568;2023-01-27T13:12:36;84510.25;;;5.88;81.14
41312;BME280;27061;41.648;24.568;2023-01-27T13:15:14;84528.41;;;6.08;81.57
41312;BME280;27061;41.648;24.568;2023-01-27T13:17:45;84542.06;;;6.14;82.05
41312;BME280;27061;41.648;24.568;2023-01-27T13:22:50;84526.50;;;6.01;82.37
41312;BME280;27061;41.648;24.568;2023-01-27T13:25:25;84487.38;;;5.61;83.01
41312;BME280;27061;41.648;24.568;2023-01-27T13:27:57;84508.31;;;5.79;82.92
41312;BME280;27061;41.648;24.568;2023-01-27T13:33:02;84550.34;;;6.10;82.89
41312;BME280;27061;41.648;24.568;2023-01-27T13:35:36;84543.13;;;5.93;83.04
41312;BME280;27061;41.648;24.568;2023-01-27T13:38:30;84528.09;;;5.85;83.42
41312;BME280;27061;41.648;24.568;2023-01-27T13:41:13;84547.78;;;6.00;83.31
41312;BME280;27061;41.648;24.568;2023-01-27T13:43:47;84520.13;;;5.71;83.06
41312;BME280;27061;41.648;24.568;2023-01-27T13:46:24;84522.09;;;5.77;83.43
41312;BME280;27061;41.648;24.568;2023-01-27T13:48:54;84550.00;;;5.92;83.55
41312;BME280;27061;41.648;24.568;2023-01-27T13:51:24;84520.25;;;5.63;83.84
41312;BME280;27061;41.648;24.568;2023-01-27T13:53:59;84516.13;;;5.64;83.48
41312;BME280;27061;41.648;24.568;2023-01-27T13:57:06;84547.34;;;5.85;83.85
41312;BME280;27061;41.648;24.568;2023-01-27T13:59:47;84545.97;;;5.84;84.31
41312;BME280;27061;41.648;24.568;2023-01-27T14:03:29;84538.50;;;5.81;84.29
41312;BME280;27061;41.648;24.568;2023-01-27T14:05:57;84539.19;;;5.81;84.61
41312;BME280;27061;41.648;24.568;2023-01-27T14:11:33;84542.69;;;5.76;85.15
41312;BME280;27061;41.648;24.568;2023-01-27T14:16:58;84540.66;;;5.74;84.85
41312;BME280;27061;41.648;24.568;2023-01-27T14:25:03;84550.28;;;5.73;84.72
41312;BME280;27061;41.648;24.568;2023-01-27T14:27:44;84523.84;;;5.56;84.78
41312;BME280;27061;41.648;24.568;2023-01-27T14:30:17;84546.25;;;5.70;84.89
41312;BME280;27061;41.648;24.568;2023-01-27T14:33:03;84543.50;;;5.70;84.78
41312;BME280;27061;41.648;24.568;2023-01-27T14:35:56;84494.91;;;5.20;84.96
41312;BME280;27061;41.648;24.568;2023-01-27T14:38:33;84496.28;;;5.21;85.17
41312;BME280;27061;41.648;24.568;2023-01-27T14:41:21;84546.44;;;5.58;85.49
41312;BME280;27061;41.648;24.568;2023-01-27T14:51:54;84520.75;;;5.35;85.51
41312;BME280;27061;41.648;24.568;2023-01-27T15:00:33;84556.25;;;5.45;85.59
41312;BME280;27061;41.648;24.568;2023-01-27T15:03:29;84562.47;;;5.41;85.98
41312;BME280;27061;41.648;24.568;2023-01-27T15:17:43;84574.28;;;5.32;86.13
41312;BME280;27061;41.648;24.568;2023-01-27T15:20:27;84575.09;;;5.24;86.06